Time;durP1;ratioP1;P1;durP2;ratioP2;P2;SDS_P1;SDS_P2;PMS_P1;PMS_P2;Temp;Humidity;BMP_temperature;BMP_pressure;BME280_temperature;BME280_humidity;BME280_pressure;Samples;Min_cycle;Max_cycle;Signal;HPM_P1;HPM_P2
2022/06/30 00:01:12;;;;;;;8.25;5.47;;;;;;;;;;4919269;29;20024;-92
2022/06/30 00:03:41;;;;;;;7.82;5.60;;;;;;;;;;4909739;29;20576;-92
2022/06/30 00:06:16;;;;;;;8.45;5.35;;;;;;;;;;4899894;29;20127;-92
2022/06/30 00:08:49;;;;;;;7.20;5.03;;;;;;;;;;4901301;29;20054;-92
2022/06/30 00:11:35;;;;;;;8.48;5.32;;;;;;;;;;4900905;29;20024;-93
2022/06/30 00:14:02;;;;;;;5.53;4.93;;;;;;;;;;4901912;29;20033;-93
2022/06/30 00:16:31;;;;;;;6.97;5.25;;;;;;;;;;4899284;29;20068;-92
2022/06/30 00:19:02;;;;;;;5.68;5.10;;;;;;;;;;4905719;29;20036;-91
2022/06/30 00:21:31;;;;;;;8.27;5.80;;;;;;;;;;4903663;29;20091;-92
2022/06/30 00:24:06;;;;;;;6.75;6.05;;;;;;;;;;4899176;29;20485;-92
2022/06/30 00:26:34;;;;;;;7.20;5.60;;;;;;;;;;4898547;29;20055;-93
2022/06/30 00:29:06;;;;;;;6.82;5.90;;;;;;;;;;4905866;29;20040;-92
2022/06/30 00:31:33;;;;;;;7.90;5.82;;;;;;;;;;4898570;29;20119;-92
2022/06/30 00:34:03;;;;;;;7.70;5.90;;;;;;;;;;4900034;29;20064;-93
2022/06/30 00:36:37;;;;;;;7.32;5.57;;;;;;;;;;4900803;29;20052;-92
2022/06/30 00:39:04;;;;;;;6.82;6.13;;;;;;;;;;4908109;29;20100;-91
2022/06/30 00:41:54;;;;;;;8.27;5.75;;;;;;;;;;4903217;29;20042;-96
2022/06/30 00:44:37;;;;;;;7.90;5.70;;;;;;;;;;4899311;29;20037;-92
2022/06/30 00:47:06;;;;;;;6.75;5.90;;;;;;;;;;4899419;29;20036;-92
2022/06/30 00:49:32;;;;;;;7.88;5.05;;;;;;;;;;4898855;29;20024;-92
2022/06/30 00:52:02;;;;;;;7.95;5.10;;;;;;;;;;4898689;29;20108;-92
2022/06/30 00:54:39;;;;;;;6.65;4.53;;;;;;;;;;4899097;29;20032;-92
2022/06/30 00:57:11;;;;;;;5.28;4.38;;;;;;;;;;4899030;29;20108;-92
2022/06/30 00:59:52;;;;;;;5.82;4.45;;;;;;;;;;4898374;29;20040;-92
2022/06/30 01:02:38;;;;;;;7.47;4.40;;;;;;;;;;4899623;29;20092;-91
2022/06/30 01:05:05;;;;;;;6.47;4.50;;;;;;;;;;4918135;29;20104;-91
2022/06/30 01:07:36;;;;;;;6.95;4.43;;;;;;;;;;4900663;29;20089;-92
2022/06/30 01:12:52;;;;;;;6.97;5.22;;;;;;;;;;4899818;29;20047;-91
2022/06/30 01:15:30;;;;;;;5.75;4.45;;;;;;;;;;4898373;29;20116;-92
2022/06/30 01:17:56;;;;;;;5.13;4.60;;;;;;;;;;4897901;29;20159;-92
2022/06/30 01:20:40;;;;;;;6.40;5.13;;;;;;;;;;4898153;29;20084;-92
2022/06/30 01:23:10;;;;;;;6.40;4.88;;;;;;;;;;4900056;29;20039;-92
2022/06/30 01:25:47;;;;;;;5.95;4.75;;;;;;;;;;4901386;29;20065;-92
2022/06/30 01:28:16;;;;;;;6.82;5.50;;;;;;;;;;4902087;29;20036;-91
2022/06/30 01:30:49;;;;;;;6.57;4.82;;;;;;;;;;4901790;29;20471;-92
2022/06/30 01:33:15;;;;;;;6.13;4.72;;;;;;;;;;4901632;29;20052;-92
2022/06/30 01:35:42;;;;;;;6.95;5.28;;;;;;;;;;4902902;29;20036;-91
2022/06/30 01:38:10;;;;;;;7.78;4.70;;;;;;;;;;4901835;29;20100;-92
2022/06/30 01:40:36;;;;;;;7.03;4.47;;;;;;;;;;4901164;29;20138;-92
2022/06/30 01:43:06;;;;;;;6.45;4.72;;;;;;;;;;4901496;29;20028;-95
2022/06/30 01:45:37;;;;;;;7.45;4.38;;;;;;;;;;4901715;29;20029;-92
2022/06/30 01:48:14;;;;;;;7.22;4.97;;;;;;;;;;4902405;29;20498;-92
2022/06/30 01:50:54;;;;;;;;;;;;;;;;;;;;;
2022/06/30 01:53:24;;;;;;;6.60;4.85;;;;;;;;;;4904992;29;20425;-92
2022/06/30 01:55:56;;;;;;;4.95;4.22;;;;;;;;;;4902045;29;20065;-92
2022/06/30 01:58:23;;;;;;;5.47;4.70;;;;;;;;;;4901436;29;20068;-92
2022/06/30 02:00:52;;;;;;;5.45;4.85;;;;;;;;;;4904189;29;20533;-92
2022/06/30 02:03:19;;;;;;;5.43;4.38;;;;;;;;;;4903600;29;20029;-92
2022/06/30 02:05:49;;;;;;;5.57;4.60;;;;;;;;;;4908451;29;20064;-92
2022/06/30 02:08:16;;;;;;;5.30;4.38;;;;;;;;;;4902980;29;20063;-92
2022/06/30 02:10:53;;;;;;;6.50;4.95;;;;;;;;;;4901296;29;20406;-92
2022/06/30 02:13:28;;;;;;;5.78;5.00;;;;;;;;;;4901601;29;20036;-91
2022/06/30 02:16:04;;;;;;;6.78;4.80;;;;;;;;;;4902580;29;20031;-93
2022/06/30 02:18:54;;;;;;;6.38;5.03;;;;;;;;;;4902299;29;20038;-92
2022/06/30 02:21:21;;;;;;;7.05;5.38;;;;;;;;;;4904579;29;20025;-91
2022/06/30 02:23:51;;;;;;;6.80;4.97;;;;;;;;;;4914268;29;20016;-91
2022/06/30 02:26:24;;;;;;;4.95;4.30;;;;;;;;;;4915777;29;20112;-92
2022/06/30 02:29:06;;;;;;;7.25;4.63;;;;;;;;;;4905197;29;20460;-91
2022/06/30 02:31:33;;;;;;;8.02;4.95;;;;;;;;;;4902160;29;20161;-91
2022/06/30 02:33:59;;;;;;;5.90;4.85;;;;;;;;;;4902029;29;20031;-92
2022/06/30 02:36:35;;;;;;;6.25;4.32;;;;;;;;;;4902507;29;20493;-91
2022/06/30 02:39:07;;;;;;;6.88;4.70;;;;;;;;;;4902920;29;20059;-92
2022/06/30 02:41:59;;;;;;;5.30;3.97;;;;;;;;;;4914280;29;20120;-95
2022/06/30 02:44:29;;;;;;;5.63;4.05;;;;;;;;;;4901066;29;20115;-91
2022/06/30 02:47:15;;;;;;;5.47;4.50;;;;;;;;;;4901594;29;20047;-91
2022/06/30 02:49:48;;;;;;;4.78;3.88;;;;;;;;;;4900242;29;20134;-92
2022/06/30 02:52:20;;;;;;;5.85;4.25;;;;;;;;;;4900736;29;20440;-90
2022/06/30 02:54:50;;;;;;;6.28;4.10;;;;;;;;;;4901520;29;20033;-92
2022/06/30 02:57:33;;;;;;;7.38;4.38;;;;;;;;;;4905019;29;20044;-92
2022/06/30 03:00:02;;;;;;;6.10;4.40;;;;;;;;;;4900641;29;20033;-92
2022/06/30 03:02:31;;;;;;;4.90;3.90;;;;;;;;;;4900426;29;20080;-92
2022/06/30 03:05:08;;;;;;;6.57;4.03;;;;;;;;;;4899625;29;20482;-91
2022/06/30 03:07:46;;;;;;;5.63;4.55;;;;;;;;;;4900545;29;20055;-92
2022/06/30 03:13:02;;;;;;;4.72;4.00;;;;;;;;;;4903996;29;20075;-91
2022/06/30 03:15:28;;;;;;;6.43;4.40;;;;;;;;;;4900082;29;20032;-92
2022/06/30 03:18:05;;;;;;;8.70;4.45;;;;;;;;;;4900003;29;20064;-95
2022/06/30 03:20:31;;;;;;;5.05;4.15;;;;;;;;;;4900247;29;20074;-92
2022/06/30 03:22:58;;;;;;;8.15;4.70;;;;;;;;;;4906294;29;20005;-92
2022/06/30 03:25:37;;;;;;;8.85;5.57;;;;;;;;;;4908295;29;20040;-92
2022/06/30 03:28:04;;;;;;;9.55;5.72;;;;;;;;;;4899922;29;20028;-91
2022/06/30 03:30:36;;;;;;;7.60;4.45;;;;;;;;;;4899826;29;20032;-92
2022/06/30 03:33:03;;;;;;;8.75;5.20;;;;;;;;;;4900266;29;20032;-92
2022/06/30 03:35:35;;;;;;;7.50;4.57;;;;;;;;;;4901588;29;20104;-93
2022/06/30 03:38:10;;;;;;;5.70;4.55;;;;;;;;;;4900468;29;20036;-91
2022/06/30 03:40:40;;;;;;;8.85;5.13;;;;;;;;;;4900096;29;20398;-92
2022/06/30 03:43:13;;;;;;;5.35;4.60;;;;;;;;;;4900273;29;20068;-91
2022/06/30 03:46:05;;;;;;;8.15;4.30;;;;;;;;;;4906727;29;20037;-91
2022/06/30 03:48:30;;;;;;;5.97;4.25;;;;;;;;;;4899978;29;20084;-92
2022/06/30 03:50:57;;;;;;;6.07;4.10;;;;;;;;;;4899176;29;20025;-92
2022/06/30 03:53:23;;;;;;;6.38;4.38;;;;;;;;;;4901913;29;20120;-91
2022/06/30 03:55:56;;;;;;;5.72;3.75;;;;;;;;;;4901938;29;20540;-93
2022/06/30 03:58:25;;;;;;;7.78;4.07;;;;;;;;;;4903449;29;20414;-93
2022/06/30 04:00:52;;;;;;;6.40;3.80;;;;;;;;;;4904066;29;20081;-92
2022/06/30 04:03:24;;;;;;;5.65;3.45;;;;;;;;;;4927039;28;20485;-91
2022/06/30 04:05:53;;;;;;;5.00;3.40;;;;;;;;;;4923744;29;20047;-90
2022/06/30 04:08:26;;;;;;;4.90;3.15;;;;;;;;;;4919837;29;20449;-92
2022/06/30 04:10:58;;;;;;;4.55;3.30;;;;;;;;;;4923888;29;20059;-92
2022/06/30 04:13:27;;;;;;;6.05;3.20;;;;;;;;;;4927788;29;20063;-92
2022/06/30 04:15:57;;;;;;;5.20;3.40;;;;;;;;;;4917823;29;20032;-93
2022/06/30 04:18:52;;;;;;;4.88;3.60;;;;;;;;;;4918425;29;20455;-92
2022/06/30 04:21:21;;;;;;;8.82;3.20;;;;;;;;;;4919061;29;20053;-92
2022/06/30 04:23:51;;;;;;;5.55;3.05;;;;;;;;;;4918724;29;20040;-92
2022/06/30 04:26:22;;;;;;;5.63;3.33;;;;;;;;;;4916412;29;20083;-92
2022/06/30 04:28:58;;;;;;;7.72;3.03;;;;;;;;;;4917236;29;20122;-92
2022/06/30 04:34:15;;;;;;;5.13;3.10;;;;;;;;;;4909917;29;20042;-92
2022/06/30 04:36:48;;;;;;;5.60;3.35;;;;;;;;;;4898794;29;20037;-93
2022/06/30 04:39:22;;;;;;;6.75;3.67;;;;;;;;;;4898233;29;20043;-92
2022/06/30 04:41:54;;;;;;;7.22;4.07;;;;;;;;;;4899321;29;20029;-92
2022/06/30 04:44:20;;;;;;;5.93;4.43;;;;;;;;;;4899350;29;20032;-91
2022/06/30 04:46:50;;;;;;;9.25;4.25;;;;;;;;;;4909543;29;20048;-92
2022/06/30 04:49:19;;;;;;;5.47;4.10;;;;;;;;;;4899087;29;20037;-92
2022/06/30 04:51:47;;;;;;;6.72;4.10;;;;;;;;;;4898803;29;20063;-92
2022/06/30 04:54:17;;;;;;;6.80;4.30;;;;;;;;;;4899623;29;20028;-92
2022/06/30 04:56:57;;;;;;;5.82;4.15;;;;;;;;;;4899941;29;20049;-92
2022/06/30 04:59:34;;;;;;;7.53;4.30;;;;;;;;;;4915255;29;20100;-92
2022/06/30 05:02:00;;;;;;;7.35;4.57;;;;;;;;;;4902664;29;20507;-92
2022/06/30 05:04:27;;;;;;;7.60;4.35;;;;;;;;;;4902898;29;20021;-90
2022/06/30 05:06:56;;;;;;;5.35;4.18;;;;;;;;;;4901955;29;20029;-90
2022/06/30 05:09:22;;;;;;;9.50;4.82;;;;;;;;;;4901902;29;20028;-91
2022/06/30 05:11:49;;;;;;;7.30;4.05;;;;;;;;;;4902590;29;20454;-91
2022/06/30 05:14:15;;;;;;;7.50;4.22;;;;;;;;;;4902758;29;20413;-92
2022/06/30 05:16:44;;;;;;;5.55;3.88;;;;;;;;;;4901520;29;20048;-92
2022/06/30 05:19:13;;;;;;;5.30;3.65;;;;;;;;;;4915219;29;20029;-89
2022/06/30 05:21:39;;;;;;;6.15;3.95;;;;;;;;;;4917180;29;20025;-90
2022/06/30 05:27:14;;;;;;;5.53;3.90;;;;;;;;;;4906358;29;20075;-92
2022/06/30 05:29:43;;;;;;;7.13;4.18;;;;;;;;;;4896438;29;20032;-91
2022/06/30 05:32:26;;;;;;;7.43;4.40;;;;;;;;;;4916845;29;20033;-89
2022/06/30 05:34:52;;;;;;;;;;;;;;;;;;4898852;29;20116;-93
2022/06/30 05:37:38;;;;;;;8.82;4.35;;;;;;;;;;4897930;29;19915;-91
2022/06/30 05:40:05;;;;;;;7.30;4.28;;;;;;;;;;4900036;29;20009;-88
2022/06/30 05:42:31;;;;;;;6.55;3.97;;;;;;;;;;4898756;29;20364;-90
2022/06/30 05:44:58;;;;;;;8.23;4.30;;;;;;;;;;4898173;29;20084;-93
2022/06/30 05:47:24;;;;;;;11.38;4.57;;;;;;;;;;4907600;29;20084;-90
2022/06/30 05:49:50;;;;;;;8.77;4.40;;;;;;;;;;4900791;29;20029;-89
2022/06/30 05:52:16;;;;;;;7.88;4.38;;;;;;;;;;4900649;29;20052;-89
2022/06/30 05:54:42;;;;;;;7.20;4.57;;;;;;;;;;4906303;29;20024;-89
2022/06/30 05:57:08;;;;;;;7.57;4.50;;;;;;;;;;4901333;29;20040;-96
2022/06/30 05:59:35;;;;;;;5.78;4.50;;;;;;;;;;4902174;29;20048;-88
2022/06/30 06:02:01;;;;;;;5.93;4.30;;;;;;;;;;4902529;29;20143;-90
2022/06/30 06:04:30;;;;;;;5.97;4.50;;;;;;;;;;4902348;29;20032;-90
2022/06/30 06:06:57;;;;;;;6.85;4.20;;;;;;;;;;4904249;29;20032;-92
2022/06/30 06:09:23;;;;;;;6.38;4.30;;;;;;;;;;4905376;29;20056;-91
2022/06/30 06:11:49;;;;;;;7.40;5.07;;;;;;;;;;4902762;29;20032;-91
2022/06/30 06:14:19;;;;;;;7.15;4.65;;;;;;;;;;4900723;29;20048;-93
2022/06/30 06:16:45;;;;;;;6.63;4.72;;;;;;;;;;4901048;29;20076;-93
2022/06/30 06:19:11;;;;;;;7.32;4.90;;;;;;;;;;4900236;29;20119;-92
2022/06/30 06:21:43;;;;;;;8.35;5.05;;;;;;;;;;4900734;29;20037;-93
2022/06/30 06:24:12;;;;;;;7.68;4.93;;;;;;;;;;4900243;29;20059;-91
2022/06/30 06:26:42;;;;;;;9.48;5.28;;;;;;;;;;4899862;29;20055;-93
2022/06/30 06:29:15;;;;;;;8.48;5.40;;;;;;;;;;4901300;29;20040;-91
2022/06/30 06:31:48;;;;;;;10.38;4.78;;;;;;;;;;4900768;29;20569;-91
2022/06/30 06:34:17;;;;;;;9.13;5.13;;;;;;;;;;4900179;29;20434;-90
2022/06/30 06:36:46;;;;;;;12.23;4.70;;;;;;;;;;4900157;29;20123;-91
2022/06/30 06:39:12;;;;;;;7.25;5.20;;;;;;;;;;4901310;29;20033;-90
2022/06/30 06:41:44;;;;;;;6.57;5.25;;;;;;;;;;4900635;29;20390;-90
2022/06/30 06:44:11;;;;;;;7.07;5.10;;;;;;;;;;4901149;29;20111;-90
2022/06/30 06:46:38;;;;;;;6.35;4.90;;;;;;;;;;4900816;29;20127;-90
2022/06/30 06:49:09;;;;;;;9.27;4.70;;;;;;;;;;4901283;29;20025;-91
2022/06/30 06:51:38;;;;;;;9.15;5.18;;;;;;;;;;4900520;29;20521;-89
2022/06/30 06:54:10;;;;;;;7.47;5.53;;;;;;;;;;4900088;29;20135;-90
2022/06/30 06:56:36;;;;;;;7.32;5.55;;;;;;;;;;4899998;29;20494;-91
2022/06/30 06:59:02;;;;;;;8.80;5.65;;;;;;;;;;4901714;29;20402;-90
2022/06/30 07:01:35;;;;;;;7.90;5.47;;;;;;;;;;4915610;29;20012;-89
2022/06/30 07:04:04;;;;;;;6.35;5.50;;;;;;;;;;4912089;29;20475;-88
2022/06/30 07:06:31;;;;;;;15.20;5.85;;;;;;;;;;4905670;29;20040;-91
2022/06/30 07:09:00;;;;;;;7.07;5.18;;;;;;;;;;4900721;29;20036;-90
2022/06/30 07:11:26;;;;;;;9.65;5.28;;;;;;;;;;4900487;29;20040;-89
2022/06/30 07:13:52;;;;;;;8.57;4.78;;;;;;;;;;4894680;29;20518;-90
2022/06/30 07:16:45;;;;;;;7.60;4.45;;;;;;;;;;4881602;29;20463;-91
2022/06/30 07:19:18;;;;;;;6.60;5.00;;;;;;;;;;4880994;29;20041;-90
2022/06/30 07:21:53;;;;;;;5.07;4.32;;;;;;;;;;4899119;29;20061;-91
2022/06/30 07:24:26;;;;;;;6.22;4.00;;;;;;;;;;4899099;29;20067;-89
2022/06/30 07:26:55;;;;;;;9.07;4.13;;;;;;;;;;4898707;29;20076;-92
2022/06/30 07:29:30;;;;;;;6.10;3.50;;;;;;;;;;4899571;29;20036;-92
2022/06/30 07:31:57;;;;;;;7.40;3.97;;;;;;;;;;4899500;29;20044;-94
2022/06/30 07:34:26;;;;;;;7.18;4.22;;;;;;;;;;4898795;29;20033;-93
2022/06/30 07:36:58;;;;;;;7.85;3.90;;;;;;;;;;4899202;29;20071;-91
2022/06/30 07:39:24;;;;;;;6.03;3.78;;;;;;;;;;4899367;29;20498;-95
2022/06/30 07:41:50;;;;;;;5.00;4.20;;;;;;;;;;4907949;29;20037;-93
2022/06/30 07:44:17;;;;;;;8.57;4.43;;;;;;;;;;4898436;29;20375;-89
2022/06/30 07:46:43;;;;;;;5.97;4.20;;;;;;;;;;4898725;29;20116;-95
2022/06/30 07:49:09;;;;;;;5.82;3.30;;;;;;;;;;4898854;29;20029;-94
2022/06/30 07:51:38;;;;;;;7.53;3.90;;;;;;;;;;4901072;29;20123;-89
2022/06/30 07:54:07;;;;;;;5.07;3.30;;;;;;;;;;4900388;29;20119;-90
2022/06/30 07:56:36;;;;;;;6.32;3.80;;;;;;;;;;4898633;29;20071;-90
2022/06/30 07:59:03;;;;;;;5.35;3.53;;;;;;;;;;4898486;29;20029;-90
2022/06/30 08:01:32;;;;;;;7.18;3.33;;;;;;;;;;4898556;29;20088;-90
2022/06/30 08:03:58;;;;;;;8.15;3.70;;;;;;;;;;4899183;29;20029;-91
2022/06/30 08:06:30;;;;;;;4.60;3.60;;;;;;;;;;4908049;29;20454;-92
2022/06/30 08:08:59;;;;;;;9.63;3.50;;;;;;;;;;4898489;29;20497;-92
2022/06/30 08:11:34;;;;;;;4.68;2.80;;;;;;;;;;4898710;29;20063;-90
2022/06/30 08:14:03;;;;;;;7.20;2.72;;;;;;;;;;4898675;29;20359;-90
2022/06/30 08:16:30;;;;;;;5.63;2.88;;;;;;;;;;4898897;29;20123;-91
2022/06/30 08:18:58;;;;;;;6.05;3.00;;;;;;;;;;4898555;29;20096;-92
2022/06/30 08:21:30;;;;;;;4.72;2.67;;;;;;;;;;4898467;29;20052;-91
2022/06/30 08:23:59;;;;;;;4.90;3.00;;;;;;;;;;4898868;29;20474;-90
2022/06/30 08:26:29;;;;;;;6.95;3.13;;;;;;;;;;4898071;29;20056;-91
2022/06/30 08:28:55;;;;;;;6.45;3.30;;;;;;;;;;4908806;29;20028;-91
2022/06/30 08:31:24;;;;;;;4.35;3.10;;;;;;;;;;4901252;29;20047;-91
2022/06/30 08:34:02;;;;;;;3.72;2.95;;;;;;;;;;4897956;29;20100;-91
2022/06/30 08:36:31;;;;;;;8.65;3.45;;;;;;;;;;4898104;29;20036;-90
2022/06/30 08:39:00;;;;;;;6.10;3.22;;;;;;;;;;4897997;29;20028;-90
2022/06/30 08:44:12;;;;;;;9.93;3.60;;;;;;;;;;4899804;29;20127;-92
2022/06/30 08:46:42;;;;;;;7.13;2.83;;;;;;;;;;4898139;29;20033;-92
2022/06/30 08:49:08;;;;;;;4.68;2.85;;;;;;;;;;4898373;29;20029;-91
2022/06/30 08:51:40;;;;;;;6.78;3.10;;;;;;;;;;4898815;29;20420;-91
2022/06/30 08:54:10;;;;;;;4.95;3.22;;;;;;;;;;4898482;29;20039;-91
2022/06/30 08:56:36;;;;;;;10.70;3.60;;;;;;;;;;4903978;29;20032;-92
2022/06/30 08:59:11;;;;;;;4.95;3.00;;;;;;;;;;4897545;29;20569;-92
2022/06/30 09:01:49;;;;;;;5.43;3.40;;;;;;;;;;4913726;29;20025;-91
2022/06/30 09:04:22;;;;;;;5.55;3.33;;;;;;;;;;4913698;29;20036;-91
2022/06/30 09:06:51;;;;;;;5.18;3.10;;;;;;;;;;4912755;29;20042;-92
2022/06/30 09:09:20;;;;;;;8.70;3.28;;;;;;;;;;4913775;29;20033;-91
2022/06/30 09:11:50;;;;;;;5.85;2.80;;;;;;;;;;4913706;29;20029;-92
2022/06/30 09:14:33;;;;;;;4.47;2.60;;;;;;;;;;4913695;29;20032;-91
2022/06/30 09:17:05;;;;;;;4.45;2.38;;;;;;;;;;4913350;29;20087;-91
2022/06/30 09:19:40;;;;;;;5.93;2.10;;;;;;;;;;4913847;29;20028;-91
2022/06/30 09:22:14;;;;;;;4.20;2.45;;;;;;;;;;4914935;29;20075;-91
2022/06/30 09:24:40;;;;;;;3.33;2.00;;;;;;;;;;4914279;29;20024;-92
2022/06/30 09:27:19;;;;;;;3.40;2.10;;;;;;;;;;4913143;29;20147;-91
2022/06/30 09:30:08;;;;;;;8.88;1.90;;;;;;;;;;4913366;29;20093;-92
2022/06/30 09:32:49;;;;;;;3.10;2.10;;;;;;;;;;4913665;29;20029;-92
2022/06/30 09:35:16;;;;;;;4.60;2.20;;;;;;;;;;4914294;29;20036;-91
2022/06/30 09:37:46;;;;;;;5.13;1.95;;;;;;;;;;4913479;29;20473;-90
2022/06/30 09:40:12;;;;;;;5.00;1.95;;;;;;;;;;4913695;29;20028;-92
2022/06/30 09:42:46;;;;;;;4.03;2.00;;;;;;;;;;4914486;29;20039;-91
2022/06/30 09:45:16;;;;;;;5.53;1.85;;;;;;;;;;4926048;29;20036;-91
2022/06/30 09:47:53;;;;;;;2.88;1.40;;;;;;;;;;4925745;29;20085;-90
2022/06/30 09:50:19;;;;;;;4.82;1.70;;;;;;;;;;4916755;29;20121;-91
2022/06/30 09:53:07;;;;;;;5.07;1.73;;;;;;;;;;4916584;29;20024;-93
2022/06/30 09:55:37;;;;;;;4.97;1.60;;;;;;;;;;4916910;29;20028;-92
2022/06/30 09:58:03;;;;;;;2.80;1.48;;;;;;;;;;4913898;29;20132;-92
2022/06/30 10:00:30;;;;;;;2.47;1.30;;;;;;;;;;4916840;29;20028;-92
2022/06/30 10:03:07;;;;;;;4.55;1.40;;;;;;;;;;4916762;29;20024;-91
2022/06/30 10:05:38;;;;;;;1.90;1.45;;;;;;;;;;4916713;29;20037;-92
2022/06/30 10:08:07;;;;;;;2.13;1.45;;;;;;;;;;4916034;29;20505;-91
2022/06/30 10:10:34;;;;;;;3.92;1.42;;;;;;;;;;4916780;29;20044;-91
2022/06/30 10:13:06;;;;;;;6.80;1.70;;;;;;;;;;4922277;29;20036;-89
2022/06/30 10:15:35;;;;;;;7.13;1.95;;;;;;;;;;4918098;29;20028;-89
2022/06/30 10:18:02;;;;;;;2.80;1.80;;;;;;;;;;4916131;29;20040;-89
2022/06/30 10:20:38;;;;;;;5.47;1.75;;;;;;;;;;4916578;29;20024;-88
2022/06/30 10:23:08;;;;;;;2.95;1.58;;;;;;;;;;4915898;29;20037;-91
2022/06/30 10:25:35;;;;;;;3.15;1.60;;;;;;;;;;4900336;29;20037;-91
2022/06/30 10:28:15;;;;;;;;;;;;;;;;;;;;;
2022/06/30 10:31:04;;;;;;;4.70;1.90;;;;;;;;;;4901161;29;20028;-92
2022/06/30 10:33:33;;;;;;;5.47;1.90;;;;;;;;;;4883869;29;20045;-91
2022/06/30 10:36:32;;;;;;;3.25;1.73;;;;;;;;;;4897724;29;20067;-92
2022/06/30 10:39:07;;;;;;;3.33;1.83;;;;;;;;;;4883647;29;20044;-91
2022/06/30 10:41:45;;;;;;;2.53;1.90;;;;;;;;;;4885261;29;20064;-90
2022/06/30 10:44:29;;;;;;;2.70;1.77;;;;;;;;;;4887367;29;20107;-89
2022/06/30 10:46:58;;;;;;;2.70;1.92;;;;;;;;;;4883510;29;20029;-90
2022/06/30 10:49:28;;;;;;;5.80;1.90;;;;;;;;;;4889407;29;20041;-91
2022/06/30 10:51:58;;;;;;;3.83;2.05;;;;;;;;;;4901060;29;20060;-90
2022/06/30 10:54:37;;;;;;;4.63;2.10;;;;;;;;;;4899713;29;20039;-92
2022/06/30 10:57:03;;;;;;;3.67;1.70;;;;;;;;;;4899072;29;20064;-92
2022/06/30 10:59:36;;;;;;;3.20;1.67;;;;;;;;;;4900345;29;20028;-92
2022/06/30 11:02:11;;;;;;;2.67;1.60;;;;;;;;;;4899705;29;20063;-91
2022/06/30 11:04:47;;;;;;;2.35;1.63;;;;;;;;;;4899985;29;20033;-90
2022/06/30 11:07:14;;;;;;;2.83;1.70;;;;;;;;;;4899805;29;20033;-88
2022/06/30 11:09:51;;;;;;;3.90;2.05;;;;;;;;;;4909025;29;20063;-90
2022/06/30 11:12:43;;;;;;;3.35;2.10;;;;;;;;;;4899268;29;20040;-90
2022/06/30 11:24:01;;;;;;;2.65;1.70;;;;;;;;;;4948714;23;20059;-90
2022/06/30 11:29:23;;;;;;;3.22;1.90;;;;;;;;;;4938557;29;20071;-91
2022/06/30 11:31:58;;;;;;;3.70;2.15;;;;;;;;;;4953241;29;20040;-92
2022/06/30 11:34:45;;;;;;;2.60;1.88;;;;;;;;;;4955067;29;20035;-94
2022/06/30 11:37:17;;;;;;;7.85;2.00;;;;;;;;;;4966876;29;20091;-92
2022/06/30 11:39:44;;;;;;;3.13;2.20;;;;;;;;;;4968022;29;20028;-91
2022/06/30 11:42:11;;;;;;;5.65;2.28;;;;;;;;;;4966474;29;20055;-92
2022/06/30 11:44:42;;;;;;;4.05;2.15;;;;;;;;;;4953095;29;20027;-92
2022/06/30 11:47:18;;;;;;;3.45;1.98;;;;;;;;;;4952500;29;20032;-92
2022/06/30 11:50:03;;;;;;;5.45;1.90;;;;;;;;;;4950227;29;20035;-90
2022/06/30 11:52:29;;;;;;;2.80;1.60;;;;;;;;;;4917638;29;20084;-92
2022/06/30 11:55:00;;;;;;;2.30;1.67;;;;;;;;;;4918554;29;20028;-90
2022/06/30 11:57:31;;;;;;;3.95;1.85;;;;;;;;;;4917661;29;20044;-92
2022/06/30 12:00:02;;;;;;;6.30;1.90;;;;;;;;;;4917368;29;20056;-92
2022/06/30 12:02:32;;;;;;;4.40;1.93;;;;;;;;;;4923215;28;20026;-91
2022/06/30 12:04:59;;;;;;;5.53;1.98;;;;;;;;;;4922177;29;20062;-92
2022/06/30 12:07:32;;;;;;;6.30;1.60;;;;;;;;;;4917733;29;20466;-92
2022/06/30 12:09:59;;;;;;;3.30;1.73;;;;;;;;;;4927044;29;20477;-91
2022/06/30 12:12:33;;;;;;;3.95;1.50;;;;;;;;;;4917469;29;20028;-92
2022/06/30 12:15:10;;;;;;;3.95;1.80;;;;;;;;;;4917375;29;20043;-91
2022/06/30 12:17:46;;;;;;;5.75;2.03;;;;;;;;;;4918107;29;20036;-92
2022/06/30 12:20:16;;;;;;;4.32;1.70;;;;;;;;;;4926155;29;20080;-92
2022/06/30 12:22:47;;;;;;;4.13;1.80;;;;;;;;;;4952043;28;20135;-91
2022/06/30 12:25:20;;;;;;;2.65;1.75;;;;;;;;;;4953468;28;20036;-91
2022/06/30 12:27:56;;;;;;;8.45;1.85;;;;;;;;;;4952515;28;20027;-91
2022/06/30 12:30:43;;;;;;;5.63;1.75;;;;;;;;;;4954394;28;20111;-92
2022/06/30 12:33:22;;;;;;;2.53;1.63;;;;;;;;;;4951755;28;20614;-91
2022/06/30 12:35:48;;;;;;;3.92;1.60;;;;;;;;;;4960386;28;20115;-91
2022/06/30 12:38:19;;;;;;;4.30;1.48;;;;;;;;;;4952432;28;20042;-90
2022/06/30 12:40:54;;;;;;;3.97;1.53;;;;;;;;;;4952067;28;20034;-90
2022/06/30 12:43:23;;;;;;;3.42;1.52;;;;;;;;;;4953924;28;20043;-92
2022/06/30 12:45:55;;;;;;;6.13;1.67;;;;;;;;;;4951966;28;20055;-90
2022/06/30 12:48:40;;;;;;;3.38;1.50;;;;;;;;;;4951879;28;20404;-93
2022/06/30 12:51:17;;;;;;;3.22;1.63;;;;;;;;;;4952007;28;20126;-93
2022/06/30 12:53:50;;;;;;;4.60;1.70;;;;;;;;;;4951838;28;20027;-94
2022/06/30 12:56:27;;;;;;;2.85;1.75;;;;;;;;;;4951610;28;20497;-93
2022/06/30 12:58:56;;;;;;;5.28;1.48;;;;;;;;;;4951919;28;20032;-94
2022/06/30 13:01:50;;;;;;;5.78;1.67;;;;;;;;;;4951877;28;20473;-94
2022/06/30 13:04:29;;;;;;;2.42;1.60;;;;;;;;;;4941484;28;20027;-94
2022/06/30 13:06:59;;;;;;;2.00;1.42;;;;;;;;;;4953053;28;20083;-94
2022/06/30 13:09:29;;;;;;;3.47;1.83;;;;;;;;;;4951598;28;20031;-94
2022/06/30 13:12:00;;;;;;;2.78;1.40;;;;;;;;;;4951353;28;20532;-93
2022/06/30 13:14:36;;;;;;;3.08;1.50;;;;;;;;;;4952164;28;20042;-94
2022/06/30 13:17:09;;;;;;;5.40;1.65;;;;;;;;;;4959511;28;20050;-93
2022/06/30 13:19:39;;;;;;;5.65;1.60;;;;;;;;;;4953789;28;20111;-94
2022/06/30 13:22:08;;;;;;;4.32;1.50;;;;;;;;;;4955441;28;20477;-94
2022/06/30 13:24:38;;;;;;;3.53;1.67;;;;;;;;;;4943106;28;20391;-94
2022/06/30 13:27:12;;;;;;;5.15;1.45;;;;;;;;;;4939737;29;20042;-94
2022/06/30 13:29:50;;;;;;;3.03;1.20;;;;;;;;;;4949322;28;20036;-91
2022/06/30 13:32:16;;;;;;;4.15;1.60;;;;;;;;;;4955087;29;20024;-92
2022/06/30 13:34:55;;;;;;;6.63;1.50;;;;;;;;;;4942955;29;20028;-90
2022/06/30 13:37:24;;;;;;;4.40;1.70;;;;;;;;;;4939527;29;20062;-93
2022/06/30 13:39:53;;;;;;;4.00;1.50;;;;;;;;;;4938383;29;20024;-93
2022/06/30 13:42:43;;;;;;;3.72;1.60;;;;;;;;;;4939101;29;20042;-95
2022/06/30 13:45:10;;;;;;;3.05;1.42;;;;;;;;;;4931126;29;20488;-95
2022/06/30 13:48:14;;;;;;;5.13;1.67;;;;;;;;;;4939140;29;20074;-94
2022/06/30 13:53:58;;;;;;;4.30;1.80;;;;;;;;;;4920221;29;20112;-96
2022/06/30 13:56:46;;;;;;;5.28;1.60;;;;;;;;;;4903322;29;20512;-94
2022/06/30 13:59:18;;;;;;;4.22;1.80;;;;;;;;;;4905682;29;20039;-95
2022/06/30 14:01:55;;;;;;;3.63;1.80;;;;;;;;;;4907952;29;20127;-96
2022/06/30 14:10:54;;;;;;;4.65;1.90;;;;;;;;;;4921262;29;20040;-89
2022/06/30 14:32:05;;;;;;;;;;;;;;;;;;;;;
2022/06/30 14:34:32;;;;;;;5.80;2.00;;;;;;;;;;4871098;29;20037;-93
2022/06/30 14:37:16;;;;;;;6.75;2.00;;;;;;;;;;4924061;29;20051;-93
2022/06/30 14:40:04;;;;;;;6.05;1.90;;;;;;;;;;4938173;29;20028;-95
2022/06/30 14:45:54;;;;;;;5.10;2.22;;;;;;;;;;4869597;29;20038;-96
2022/06/30 14:48:31;;;;;;;;;;;;;;;;;;4847789;29;20113;-93
2022/06/30 14:51:01;;;;;;;5.45;1.70;;;;;;;;;;4848775;29;19915;-93
2022/06/30 14:53:30;;;;;;;3.90;1.88;;;;;;;;;;4846995;29;20033;-92
2022/06/30 14:56:02;;;;;;;6.40;1.95;;;;;;;;;;4846505;29;20061;-93
2022/06/30 14:58:47;;;;;;;6.75;1.90;;;;;;;;;;4846511;29;20052;-94
2022/06/30 15:01:17;;;;;;;4.53;1.77;;;;;;;;;;4846216;29;20026;-94
2022/06/30 15:03:43;;;;;;;5.50;2.05;;;;;;;;;;4846381;29;20042;-92
2022/06/30 15:06:09;;;;;;;7.05;2.20;;;;;;;;;;4846242;29;20440;-90
2022/06/30 15:08:35;;;;;;;7.43;2.05;;;;;;;;;;4854811;29;20547;-93
2022/06/30 15:11:12;;;;;;;4.05;1.80;;;;;;;;;;4846858;29;20042;-93
2022/06/30 15:13:50;;;;;;;9.40;2.45;;;;;;;;;;4849336;29;20049;-95
2022/06/30 15:16:16;;;;;;;5.32;2.00;;;;;;;;;;4880784;29;20040;-92
2022/06/30 15:18:48;;;;;;;7.97;2.10;;;;;;;;;;4936065;29;20036;-92
2022/06/30 15:24:09;;;;;;;5.80;1.85;;;;;;;;;;4922797;29;19930;-92
2022/06/30 15:26:39;;;;;;;6.53;1.90;;;;;;;;;;4935470;29;20040;-93
2022/06/30 15:29:12;;;;;;;3.55;2.10;;;;;;;;;;4955622;29;20039;-92
2022/06/30 15:31:43;;;;;;;8.43;2.40;;;;;;;;;;4941257;29;20048;-93
2022/06/30 15:34:13;;;;;;;10.13;2.47;;;;;;;;;;4940097;29;20054;-92
2022/06/30 15:36:45;;;;;;;7.05;2.13;;;;;;;;;;4940186;29;20063;-91
2022/06/30 15:39:14;;;;;;;6.53;2.40;;;;;;;;;;4950930;28;20090;-91
2022/06/30 15:41:41;;;;;;;7.32;2.42;;;;;;;;;;4939286;29;20039;-91
2022/06/30 15:44:11;;;;;;;5.95;2.30;;;;;;;;;;4938211;29;20043;-90
2022/06/30 15:46:40;;;;;;;6.88;2.05;;;;;;;;;;4939333;29;20039;-92
2022/06/30 15:49:12;;;;;;;7.18;2.08;;;;;;;;;;4938704;29;20031;-92
2022/06/30 15:51:42;;;;;;;7.13;2.00;;;;;;;;;;4939455;29;20046;-92
2022/06/30 15:57:24;;;;;;;7.93;2.38;;;;;;;;;;4936239;29;20079;-89
2022/06/30 16:00:02;;;;;;;8.82;2.13;;;;;;;;;;4911877;29;20072;-90
2022/06/30 16:02:28;;;;;;;5.47;2.22;;;;;;;;;;4901317;29;20047;-92
2022/06/30 16:05:09;;;;;;;2.50;1.85;;;;;;;;;;4899674;29;20096;-92
2022/06/30 16:07:35;;;;;;;8.52;2.42;;;;;;;;;;4911343;29;20047;-93
2022/06/30 16:10:04;;;;;;;4.55;2.40;;;;;;;;;;4932946;29;20516;-92
2022/06/30 16:12:40;;;;;;;6.53;2.10;;;;;;;;;;4933546;29;20032;-93
2022/06/30 16:15:10;;;;;;;6.28;2.42;;;;;;;;;;4932959;29;20087;-91
2022/06/30 16:17:39;;;;;;;6.22;2.40;;;;;;;;;;4954326;29;20149;-91